createdAt,value
2019-05-05T00:13:09.866Z,37.90
2019-05-05T00:26:17.051Z,38.20
2019-05-05T00:39:25.421Z,38.50
2019-05-05T00:52:31.510Z,38.70
2019-05-05T01:05:38.634Z,38.90
2019-05-05T01:32:42.112Z,39.20
2019-05-05T01:46:05.131Z,39.40
2019-05-05T01:59:27.727Z,39.50
2019-05-05T02:12:50.530Z,39.70
2019-05-05T02:26:15.321Z,39.80
2019-05-05T02:39:38.241Z,40.00
2019-05-05T02:52:58.996Z,40.10
2019-05-05T03:19:23.565Z,40.20
2019-05-05T03:32:30.662Z,40.40
2019-05-05T03:58:43.696Z,40.60
2019-05-05T04:11:49.963Z,40.70
2019-05-05T04:24:57.165Z,40.60
2019-05-05T04:38:04.851Z,40.90
2019-05-05T04:51:13.761Z,41.10
2019-05-05T05:04:18.822Z,41.20
2019-05-05T05:31:21.726Z,41.30
2019-05-05T05:44:44.571Z,41.10
2019-05-05T05:58:07.391Z,41.10
2019-05-05T06:11:30.081Z,41.10
2019-05-05T06:24:54.064Z,41.10
2019-05-05T06:38:15.737Z,40.90
2019-05-05T06:51:38.565Z,40.70
2019-05-05T07:05:01.445Z,40.80
2019-05-05T07:18:24.713Z,39.00
2019-05-05T07:31:47.015Z,38.90
2019-05-05T07:58:34.484Z,35.70
2019-05-05T08:11:55.609Z,35.70
2019-05-05T08:25:18.382Z,34.90
2019-05-05T09:35:13.831Z,37.50
2019-05-05T09:48:35.408Z,37.70
2019-05-05T10:01:58.304Z,37.70
2019-05-05T10:28:55.992Z,37.50
2019-05-05T10:42:04.024Z,37.80
2019-05-05T11:08:36.025Z,38.30
2019-05-05T11:21:58.715Z,38.10
2019-05-05T12:01:30.272Z,38.50
2019-05-05T12:14:37.430Z,38.50
2019-05-05T12:27:44.610Z,38.30
2019-05-05T12:40:53.486Z,38.30
2019-05-05T12:53:59.179Z,38.30
2019-05-05T13:07:24.304Z,38.70
2019-05-05T13:20:50.710Z,39.70
2019-05-05T13:34:08.729Z,39.00
2019-05-05T13:47:31.500Z,38.80
2019-05-05T14:00:54.635Z,38.70
2019-05-05T14:14:17.209Z,38.50
2019-05-05T14:27:39.823Z,37.90
2019-05-05T14:54:04.713Z,30.80
2019-05-05T15:20:18.345Z,29.70
2019-05-05T15:46:30.122Z,29.60
2019-05-05T15:59:37.398Z,29.90
2019-05-05T16:12:45.059Z,30.60
2019-05-05T16:25:54.118Z,31.60
2019-05-05T16:38:59.389Z,32.30
2019-05-05T16:52:23.962Z,32.80
2019-05-05T17:05:46.688Z,33.50
2019-05-05T17:19:09.029Z,33.80
2019-05-05T17:32:31.869Z,34.40
2019-05-05T17:45:55.099Z,34.60
2019-05-05T17:59:17.479Z,34.90
2019-05-05T18:12:40.274Z,35.10
2019-05-05T18:26:04.066Z,35.20
2019-05-05T18:39:25.858Z,35.30
2019-05-05T18:52:49.381Z,35.50
2019-05-05T19:06:11.516Z,35.60
2019-05-05T19:19:34.571Z,35.60
2019-05-05T19:32:57.178Z,35.80
2019-05-05T19:46:20.103Z,36.10
2019-05-05T19:59:44.662Z,36.20
2019-05-05T20:13:05.745Z,36.40
2019-05-05T20:26:28.422Z,36.50
2019-05-05T20:39:51.318Z,35.60
2019-05-05T20:53:14.054Z,35.80
2019-05-05T21:06:36.937Z,35.80
2019-05-05T21:20:00.115Z,35.80
2019-05-05T21:33:23.962Z,35.70
2019-05-05T21:46:45.290Z,34.30
2019-05-05T22:00:08.132Z,34.20
2019-05-05T22:13:30.950Z,34.90
2019-05-05T22:26:54.076Z,35.20
2019-05-05T22:40:16.572Z,35.60
2019-05-05T22:53:39.397Z,35.70
2019-05-05T23:07:03.860Z,35.90
2019-05-05T23:33:59.948Z,36.20
2019-05-05T23:47:07.121Z,36.30
